sensor_id;sensor_type;location;lat;lon;timestamp;pressure;altitude;pressure_sealevel;temperature;humidity
63115;BME280;49208;50.874;6.466;2022-12-07T08:54:04;100616.22;;;3.52;100.00
63115;BME280;49208;50.874;6.466;2022-12-07T08:56:31;100614.34;;;3.75;100.00
63115;BME280;49208;50.874;6.466;2022-12-07T08:58:57;100618.63;;;4.01;100.00
63115;BME280;49208;50.874;6.466;2022-12-07T09:01:23;100610.47;;;4.35;100.00
63115;BME280;49208;50.874;6.466;2022-12-07T09:03:48;100612.91;;;4.59;100.00
63115;BME280;49208;50.874;6.466;2022-12-07T09:06:13;100605.00;;;4.61;100.00
63115;BME280;49208;50.874;6.466;2022-12-07T09:08:42;100612.97;;;4.53;100.00
63115;BME280;49208;50.874;6.466;2022-12-07T09:11:10;100606.94;;;4.39;100.00
63115;BME280;49208;50.874;6.466;2022-12-07T09:13:36;100610.53;;;4.29;100.00
63115;BME280;49208;50.874;6.466;2022-12-07T09:16:01;100613.88;;;4.46;100.00
63115;BME280;49208;50.874;6.466;2022-12-07T09:18:27;100612.72;;;4.84;100.00
63115;BME280;49208;50.874;6.466;2022-12-07T09:20:52;100614.88;;;5.30;100.00
63115;BME280;49208;50.874;6.466;2022-12-07T09:23:18;100616.34;;;5.54;100.00
63115;BME280;49208;50.874;6.466;2022-12-07T09:25:43;100603.88;;;5.64;100.00
63115;BME280;49208;50.874;6.466;2022-12-07T09:28:09;100603.66;;;5.82;100.00
63115;BME280;49208;50.874;6.466;2022-12-07T09:30:34;100614.00;;;5.99;100.00
63115;BME280;49208;50.874;6.466;2022-12-07T09:33:00;100607.03;;;5.94;100.00
63115;BME280;49208;50.874;6.466;2022-12-07T09:35:25;100605.44;;;5.80;100.00
63115;BME280;49208;50.874;6.466;2022-12-07T09:37:51;100611.56;;;5.82;100.00
63115;BME280;49208;50.874;6.466;2022-12-07T09:40:18;100619.38;;;5.95;100.00
63115;BME280;49208;50.874;6.466;2022-12-07T09:42:48;100613.84;;;6.12;100.00
63115;BME280;49208;50.874;6.466;2022-12-07T09:45:18;100604.88;;;6.22;100.00
63115;BME280;49208;50.874;6.466;2022-12-07T09:47:45;100604.88;;;6.22;100.00
63115;BME280;49208;50.874;6.466;2022-12-07T09:50:20;100608.38;;;6.24;100.00
63115;BME280;49208;50.874;6.466;2022-12-07T09:52:48;100603.91;;;6.29;100.00
63115;BME280;49208;50.874;6.466;2022-12-07T09:55:23;100605.63;;;6.32;100.00
63115;BME280;49208;50.874;6.466;2022-12-07T09:57:52;100603.72;;;6.40;100.00
63115;BME280;49208;50.874;6.466;2022-12-07T10:00:19;100597.38;;;6.52;100.00
63115;BME280;49208;50.874;6.466;2022-12-07T10:02:59;100605.88;;;6.69;100.00
63115;BME280;49208;50.874;6.466;2022-12-07T10:05:58;100602.09;;;6.84;100.00
63115;BME280;49208;50.874;6.466;2022-12-07T10:08:17;100594.78;;;7.00;100.00
63115;BME280;49208;50.874;6.466;2022-12-07T10:10:44;100601.00;;;6.97;98.56
63115;BME280;49208;50.874;6.466;2022-12-07T10:13:16;100593.44;;;6.76;96.76
63115;BME280;49208;50.874;6.466;2022-12-07T10:20:46;100590.78;;;6.21;98.51
63115;BME280;49208;50.874;6.466;2022-12-07T10:23:17;100588.34;;;6.07;98.75
63115;BME280;49208;50.874;6.466;2022-12-07T10:25:42;100586.75;;;5.97;99.42
63115;BME280;49208;50.874;6.466;2022-12-07T10:52:03;100579.50;;;5.45;100.00
63115;BME280;49208;50.874;6.466;2022-12-07T11:00:16;100560.53;;;5.12;100.00
63115;BME280;49208;50.874;6.466;2022-12-07T11:08:05;100548.44;;;4.90;100.00
63115;BME280;49208;50.874;6.466;2022-12-07T11:13:55;100530.88;;;4.90;100.00
63115;BME280;49208;50.874;6.466;2022-12-07T11:21:48;100527.25;;;5.00;100.00
63115;BME280;49208;50.874;6.466;2022-12-07T11:24:22;100523.84;;;4.91;100.00
63115;BME280;49208;50.874;6.466;2022-12-07T11:35:17;100524.22;;;4.55;100.00
63115;BME280;49208;50.874;6.466;2022-12-07T11:37:49;100518.06;;;4.53;100.00
63115;BME280;49208;50.874;6.466;2022-12-07T11:45:33;100512.38;;;4.93;100.00
63115;BME280;49208;50.874;6.466;2022-12-07T11:48:22;100509.50;;;5.13;100.00
63115;BME280;49208;50.874;6.466;2022-12-07T11:50:54;100502.31;;;5.26;100.00
63115;BME280;49208;50.874;6.466;2022-12-07T11:53:31;100501.31;;;5.35;100.00
63115;BME280;49208;50.874;6.466;2022-12-07T12:06:37;100491.50;;;5.44;100.00
63115;BME280;49208;50.874;6.466;2022-12-07T12:09:17;100492.47;;;5.39;100.00
63115;BME280;49208;50.874;6.466;2022-12-07T12:19:30;100485.69;;;5.18;100.00
63115;BME280;49208;50.874;6.466;2022-12-07T12:22:18;100480.50;;;5.12;100.00
63115;BME280;49208;50.874;6.466;2022-12-07T12:24:48;100478.81;;;5.06;100.00
63115;BME280;49208;50.874;6.466;2022-12-07T12:27:45;100478.94;;;4.97;100.00
63115;BME280;49208;50.874;6.466;2022-12-07T12:32:50;100472.81;;;4.95;100.00
63115;BME280;49208;50.874;6.466;2022-12-07T12:35:36;100469.22;;;4.99;100.00
63115;BME280;49208;50.874;6.466;2022-12-07T12:40:49;100460.19;;;5.18;100.00
63115;BME280;49208;50.874;6.466;2022-12-07T12:43:49;100462.66;;;5.31;100.00
63115;BME280;49208;50.874;6.466;2022-12-07T12:48:56;100455.44;;;5.43;100.00
63115;BME280;49208;50.874;6.466;2022-12-07T12:51:41;100454.53;;;5.46;100.00
63115;BME280;49208;50.874;6.466;2022-12-07T12:56:51;100451.03;;;5.44;100.00
63115;BME280;49208;50.874;6.466;2022-12-07T12:59:28;100444.94;;;5.40;100.00
63115;BME280;49208;50.874;6.466;2022-12-07T13:02:27;100445.94;;;5.32;100.00
63115;BME280;49208;50.874;6.466;2022-12-07T13:15:38;100444.47;;;5.11;100.00
63115;BME280;49208;50.874;6.466;2022-12-07T13:18:21;100441.78;;;5.12;100.00
63115;BME280;49208;50.874;6.466;2022-12-07T13:20:49;100444.41;;;5.14;100.00
63115;BME280;49208;50.874;6.466;2022-12-07T13:23:18;100442.59;;;5.19;100.00
63115;BME280;49208;50.874;6.466;2022-12-07T13:26:12;100439.06;;;5.18;100.00
63115;BME280;49208;50.874;6.466;2022-12-07T13:28:37;100436.47;;;5.17;100.00
63115;BME280;49208;50.874;6.466;2022-12-07T13:31:14;100422.47;;;5.12;100.00
63115;BME280;49208;50.874;6.466;2022-12-07T13:33:43;100420.75;;;5.06;100.00
63115;BME280;49208;50.874;6.466;2022-12-07T13:36:38;100422.59;;;5.02;100.00
63115;BME280;49208;50.874;6.466;2022-12-07T13:39:34;100418.25;;;4.97;100.00
63115;BME280;49208;50.874;6.466;2022-12-07T13:42:27;100417.41;;;4.96;100.00
63115;BME280;49208;50.874;6.466;2022-12-07T13:44:54;100416.50;;;4.96;100.00
63115;BME280;49208;50.874;6.466;2022-12-07T13:47:32;100412.16;;;4.93;100.00
63115;BME280;49208;50.874;6.466;2022-12-07T13:50:01;100409.53;;;4.92;100.00
63115;BME280;49208;50.874;6.466;2022-12-07T13:52:30;100401.66;;;4.89;100.00
63115;BME280;49208;50.874;6.466;2022-12-07T13:55:01;100400.81;;;4.86;100.00
63115;BME280;49208;50.874;6.466;2022-12-07T13:57:35;100394.69;;;4.84;100.00
63115;BME280;49208;50.874;6.466;2022-12-07T14:00:06;100397.34;;;4.81;100.00
63115;BME280;49208;50.874;6.466;2022-12-07T14:02:55;100393.03;;;4.77;100.00
63115;BME280;49208;50.874;6.466;2022-12-07T14:10:26;100393.91;;;4.75;100.00
63115;BME280;49208;50.874;6.466;2022-12-07T14:12:52;100393.06;;;4.73;100.00
63115;BME280;49208;50.874;6.466;2022-12-07T14:15:22;100393.09;;;4.71;100.00
63115;BME280;49208;50.874;6.466;2022-12-07T14:17:54;100390.47;;;4.70;100.00
63115;BME280;49208;50.874;6.466;2022-12-07T14:22:58;100380.88;;;4.62;100.00
63115;BME280;49208;50.874;6.466;2022-12-07T14:25:26;100379.19;;;4.58;100.00
63115;BME280;49208;50.874;6.466;2022-12-07T14:30:26;100373.13;;;4.52;100.00
63115;BME280;49208;50.874;6.466;2022-12-07T14:33:03;100370.53;;;4.49;100.00
63115;BME280;49208;50.874;6.466;2022-12-07T14:35:30;100374.97;;;4.45;100.00
63115;BME280;49208;50.874;6.466;2022-12-07T14:37:56;100370.59;;;4.42;100.00
63115;BME280;49208;50.874;6.466;2022-12-07T14:40:24;100366.25;;;4.38;100.00
63115;BME280;49208;50.874;6.466;2022-12-07T14:43:12;100357.50;;;4.35;100.00
63115;BME280;49208;50.874;6.466;2022-12-07T14:45:39;100368.94;;;4.34;100.00
63115;BME280;49208;50.874;6.466;2022-12-07T14:48:05;100354.03;;;4.31;100.00
63115;BME280;49208;50.874;6.466;2022-12-07T14:50:35;100359.34;;;4.30;100.00
63115;BME280;49208;50.874;6.466;2022-12-07T14:53:09;100351.44;;;4.27;100.00
63115;BME280;49208;50.874;6.466;2022-12-07T14:55:35;100355.88;;;4.24;100.00
63115;BME280;49208;50.874;6.466;2022-12-07T14:58:01;100354.13;;;4.23;100.00
63115;BME280;49208;50.874;6.466;2022-12-07T15:00:28;100352.38;;;4.22;100.00
63115;BME280;49208;50.874;6.466;2022-12-07T15:02:54;100347.13;;;4.21;100.00
63115;BME280;49208;50.874;6.466;2022-12-07T15:05:20;100342.75;;;4.18;100.00
63115;BME280;49208;50.874;6.466;2022-12-07T15:07:46;100345.41;;;4.17;100.00
63115;BME280;49208;50.874;6.466;2022-12-07T15:12:40;100348.94;;;4.13;100.00
63115;BME280;49208;50.874;6.466;2022-12-07T15:15:05;100342.84;;;4.11;100.00
63115;BME280;49208;50.874;6.466;2022-12-07T15:17:31;100346.38;;;4.08;100.00
63115;BME280;49208;50.874;6.466;2022-12-07T15:19:56;100356.06;;;4.06;100.00
63115;BME280;49208;50.874;6.466;2022-12-07T15:22:22;100339.41;;;4.04;100.00
63115;BME280;49208;50.874;6.466;2022-12-07T15:24:47;100335.03;;;4.01;100.00
63115;BME280;49208;50.874;6.466;2022-12-07T15:27:12;100343.88;;;3.97;100.00
63115;BME280;49208;50.874;6.466;2022-12-07T15:29:38;100349.19;;;3.93;100.00
63115;BME280;49208;50.874;6.466;2022-12-07T15:32:03;100344.84;;;3.87;100.00
